Time;durP1;ratioP1;P1;durP2;ratioP2;P2;SDS_P1;SDS_P2;PMS_P1;PMS_P2;Temp;Humidity;BMP_temperature;BMP_pressure;BME280_temperature;BME280_humidity;BME280_pressure;Samples;Min_cycle;Max_cycle;Signal;HPM_P1;HPM_P2
2022/02/05 00:05:39;;;;;;;26.70;13.05;;;;;;;-6.14;100.00;94922.25;5051185;28;20087;-79
2022/02/05 00:11:31;;;;;;;48.63;22.67;;;;;;;-6.40;100.00;94880.66;5277564;22;20057;-79
2022/02/05 00:43:10;;;;;;;28.33;16.65;;;;;;;-6.22;100.00;94915.06;5065856;28;20462;-77
2022/02/05 00:45:39;;;;;;;29.23;16.38;;;;;;;-6.31;100.00;94909.63;5067460;28;20021;-79
2022/02/05 00:48:06;;;;;;;25.60;16.23;;;;;;;-6.27;100.00;94908.59;5066706;28;20382;-77
2022/02/05 00:50:34;;;;;;;22.35;13.80;;;;;;;-6.29;100.00;94913.69;5067713;28;20380;-78
2022/02/05 00:53:49;;;;;;;19.77;11.75;;;;;;;-6.09;100.00;94911.06;5067539;28;20048;-77
2022/02/05 00:55:53;;;;;;;21.42;13.40;;;;;;;-6.24;100.00;94908.47;5053307;28;20089;-77
2022/02/05 00:58:18;;;;;;;21.65;14.50;;;;;;;-6.23;100.00;94918.47;5066084;28;20043;-77
2022/02/05 01:00:44;;;;;;;27.40;15.32;;;;;;;-6.13;100.00;94924.69;5047578;28;20108;-77
2022/02/05 01:03:09;;;;;;;24.63;14.90;;;;;;;-6.24;100.00;94910.97;5067443;28;20029;-77
2022/02/05 01:05:35;;;;;;;26.27;12.60;;;;;;;-6.18;100.00;94911.50;5068728;28;20061;-77
2022/02/05 01:08:01;;;;;;;19.45;10.75;;;;;;;-6.18;100.00;94900.63;5066123;28;20036;-77
2022/02/05 01:10:27;;;;;;;20.02;11.48;;;;;;;-6.28;100.00;94901.94;5066642;28;20033;-77
2022/02/05 01:13:01;;;;;;;19.95;12.32;;;;;;;-6.39;100.00;94911.72;5064918;28;20028;-77
2022/02/05 01:15:34;;;;;;;19.27;12.35;;;;;;;-6.73;100.00;94907.38;5068875;28;20024;-77
2022/02/05 01:18:03;;;;;;;25.40;12.07;;;;;;;-6.35;100.00;94898.06;5049796;28;20021;-77
2022/02/05 01:23:17;;;;;;;20.95;11.07;;;;;;;-6.61;100.00;94906.81;5067448;28;20027;-77
2022/02/05 01:25:50;;;;;;;18.33;12.38;;;;;;;-6.64;100.00;94886.81;5066204;28;20077;-76
2022/02/05 01:28:20;;;;;;;23.65;11.98;;;;;;;-6.64;100.00;94890.16;5067459;28;20549;-76
2022/02/05 01:30:51;;;;;;;28.42;13.00;;;;;;;-6.93;100.00;94885.63;5066863;28;20150;-76
2022/02/05 01:36:38;;;;;;;22.15;13.30;;;;;;;-6.53;100.00;94879.59;5066755;28;19919;-76
2022/02/05 01:55:38;;;;;;;25.63;11.93;;;;;;;-6.80;100.00;94873.31;5066809;28;20086;-76
2022/02/05 02:11:39;;;;;;;22.35;12.32;;;;;;;-6.81;100.00;94886.78;5068191;28;20117;-76
2022/02/05 02:19:44;;;;;;;22.08;12.60;;;;;;;-6.93;100.00;94892.38;5067648;28;20527;-75
2022/02/05 02:30:00;;;;;;;23.95;12.05;;;;;;;-7.06;100.00;94889.56;5067276;28;20029;-76
2022/02/05 02:32:18;;;;;;;24.92;13.90;;;;;;;-6.85;100.00;94890.31;5067259;28;20040;-76
2022/02/05 02:34:49;;;;;;;25.48;14.65;;;;;;;-6.93;100.00;94888.16;5048930;28;20410;-76
2022/02/05 02:37:19;;;;;;;34.30;13.38;;;;;;;-6.91;100.00;94891.44;5067831;28;20028;-75
2022/02/05 02:42:21;;;;;;;21.00;11.90;;;;;;;-6.81;100.00;94896.88;5066778;28;20086;-76
2022/02/05 02:44:46;;;;;;;30.80;14.40;;;;;;;-6.88;100.00;94893.00;5066407;28;20104;-76
2022/02/05 02:47:12;;;;;;;34.20;14.82;;;;;;;-6.78;100.00;94890.00;5049414;28;20115;-76
2022/02/05 02:57:54;;;;;;;26.63;14.05;;;;;;;-7.05;100.00;94893.72;5069403;28;20035;-75
2022/02/05 03:00:20;;;;;;;31.02;15.40;;;;;;;-6.91;100.00;94890.59;5069154;28;20524;-75
2022/02/05 03:02:45;;;;;;;39.80;21.15;;;;;;;-6.89;100.00;94893.88;5070045;28;20016;-76
2022/02/05 03:05:11;;;;;;;39.72;19.55;;;;;;;-6.89;100.00;94883.78;5069673;28;20020;-76
2022/02/05 03:07:36;;;;;;;34.63;18.17;;;;;;;-6.96;100.00;94885.78;5070120;28;20031;-76
2022/02/05 03:10:03;;;;;;;22.10;13.32;;;;;;;-6.98;100.00;94887.56;5068476;28;20024;-76
2022/02/05 03:12:28;;;;;;;24.02;13.68;;;;;;;-6.89;100.00;94892.16;5069486;28;20048;-77
2022/02/05 03:14:54;;;;;;;25.33;15.50;;;;;;;-6.83;100.00;94889.38;5051447;28;20051;-77
2022/02/05 03:17:22;;;;;;;33.38;17.52;;;;;;;-6.69;100.00;94888.75;5069792;28;20035;-78
2022/02/05 03:19:52;;;;;;;30.83;18.15;;;;;;;-6.78;100.00;94881.63;5070510;28;20020;-78
2022/02/05 03:22:19;;;;;;;29.75;13.77;;;;;;;-6.79;100.00;94897.59;5068625;28;20023;-78
2022/02/05 03:24:46;;;;;;;27.10;14.65;;;;;;;-6.91;100.00;94893.94;5069511;28;20086;-77
2022/02/05 03:27:13;;;;;;;24.27;12.27;;;;;;;-7.03;100.00;94904.56;5068142;28;20025;-77
2022/02/05 03:29:42;;;;;;;24.63;14.13;;;;;;;-7.17;100.00;94906.84;5052914;28;20720;-78
2022/02/05 03:32:08;;;;;;;25.48;12.77;;;;;;;-7.40;100.00;94907.84;5051879;28;20090;-78
2022/02/05 03:34:35;;;;;;;29.95;13.07;;;;;;;-7.25;100.00;94911.38;5070761;28;20654;-79
2022/02/05 03:37:01;;;;;;;22.45;11.98;;;;;;;-7.27;100.00;94913.97;5052329;28;20063;-78
2022/02/05 03:39:27;;;;;;;32.40;15.40;;;;;;;-7.68;100.00;94904.88;5069119;28;20044;-79
2022/02/05 03:41:52;;;;;;;24.63;16.75;;;;;;;-7.46;100.00;94905.59;5069595;28;20067;-78
2022/02/05 03:44:18;;;;;;;23.17;13.57;;;;;;;-7.37;100.00;94915.25;5067847;28;20482;-78
2022/02/05 03:46:45;;;;;;;24.65;11.85;;;;;;;-7.43;100.00;94913.00;5070639;28;20032;-78
2022/02/05 03:49:14;;;;;;;16.90;11.20;;;;;;;-7.28;100.00;94914.03;5070019;28;20013;-80
2022/02/05 03:51:39;;;;;;;25.37;12.33;;;;;;;-7.32;100.00;94920.88;5073135;28;20132;-79
2022/02/05 03:54:05;;;;;;;27.38;13.07;;;;;;;-7.20;100.00;94910.31;5070957;28;20909;-79
2022/02/05 03:56:30;;;;;;;22.27;13.55;;;;;;;-7.12;100.00;94909.97;5084136;28;20596;-78
2022/02/05 03:58:56;;;;;;;20.55;13.88;;;;;;;-7.01;100.00;94915.34;5068016;28;20107;-77
2022/02/05 04:01:21;;;;;;;22.05;11.25;;;;;;;-6.98;100.00;94915.22;5052154;28;20028;-77
2022/02/05 04:03:47;;;;;;;25.35;13.18;;;;;;;-7.11;100.00;94916.63;5051236;28;20036;-77
2022/02/05 04:06:12;;;;;;;18.90;12.32;;;;;;;-7.21;100.00;94913.72;5067763;28;20397;-77
2022/02/05 04:08:38;;;;;;;20.73;12.73;;;;;;;-7.24;100.00;94911.31;5068698;28;20121;-77
2022/02/05 04:16:22;;;;;;;27.08;13.25;;;;;;;-7.09;100.00;94915.69;5069093;28;20474;-77
2022/02/05 04:18:56;;;;;;;21.67;13.75;;;;;;;-7.09;100.00;94914.88;5069589;28;20478;-77
2022/02/05 04:21:22;;;;;;;20.20;11.52;;;;;;;-7.15;100.00;94912.63;5051940;28;20481;-77
2022/02/05 04:23:49;;;;;;;19.90;11.88;;;;;;;-7.26;100.00;94917.31;5050102;28;20550;-77
2022/02/05 04:26:16;;;;;;;24.10;12.52;;;;;;;-7.30;100.00;94919.13;5068605;28;20034;-77
2022/02/05 04:28:41;;;;;;;24.80;15.30;;;;;;;-7.24;100.00;94915.53;5066936;28;20035;-78
2022/02/05 04:31:07;;;;;;;40.30;18.75;;;;;;;-7.26;100.00;94918.13;5070827;28;20025;-79
2022/02/05 04:33:32;;;;;;;41.50;19.20;;;;;;;-7.30;100.00;94938.44;5069235;28;20083;-79
2022/02/05 04:35:58;;;;;;;34.53;15.07;;;;;;;-7.25;100.00;94934.84;5069995;28;20047;-77
2022/02/05 04:38:26;;;;;;;42.95;21.65;;;;;;;-7.17;100.00;94940.38;5081309;28;20032;-80
2022/02/05 04:40:56;;;;;;;28.13;15.43;;;;;;;-7.37;100.00;94937.88;5073856;28;20021;-79
2022/02/05 04:43:49;;;;;;;35.08;15.23;;;;;;;-7.62;100.00;94935.59;5051720;28;20024;-78
2022/02/05 04:46:31;;;;;;;24.35;13.60;;;;;;;-7.74;100.00;94930.25;5066663;28;20016;-78
2022/02/05 04:49:25;;;;;;;26.30;14.65;;;;;;;-7.95;100.00;94936.13;5068285;28;20390;-78
2022/02/05 05:05:05;;;;;;;34.75;19.02;;;;;;;-6.63;100.00;94924.53;5068357;28;20466;-78
2022/02/05 05:10:29;;;;;;;27.65;15.45;;;;;;;-6.78;100.00;94940.31;5075024;28;20031;-79
2022/02/05 05:13:10;;;;;;;24.73;13.90;;;;;;;-6.76;100.00;94943.56;5069837;28;20028;-79
2022/02/05 05:20:57;;;;;;;30.90;15.70;;;;;;;-7.38;100.00;94941.25;5065793;28;20043;-77
2022/02/05 05:23:23;;;;;;;40.47;22.92;;;;;;;-6.97;100.00;94939.50;5067261;28;20569;-77
2022/02/05 05:25:48;;;;;;;49.30;24.30;;;;;;;-6.78;100.00;94936.97;5065713;28;20061;-76
2022/02/05 05:28:14;;;;;;;71.15;46.67;;;;;;;-6.69;100.00;94941.59;5067212;28;20040;-77
2022/02/05 05:30:40;;;;;;;94.70;54.25;;;;;;;-6.57;100.00;94941.03;5066064;28;20108;-77
2022/02/05 05:33:06;;;;;;;62.25;37.10;;;;;;;-6.51;100.00;94946.63;5050018;28;20028;-77
2022/02/05 05:35:32;;;;;;;36.85;20.63;;;;;;;-6.28;100.00;94935.50;5067361;28;20055;-77
2022/02/05 05:37:57;;;;;;;39.22;22.15;;;;;;;-6.32;100.00;94933.19;5066107;28;20028;-77
2022/02/05 05:40:23;;;;;;;27.23;18.65;;;;;;;-6.39;100.00;94932.66;5067781;28;20027;-78
2022/02/05 05:42:56;;;;;;;29.52;19.33;;;;;;;-6.40;100.00;94928.50;5066724;28;20032;-77
2022/02/05 05:47:56;;;;;;;28.63;16.00;;;;;;;-6.20;100.00;94941.00;5065255;28;20028;-77
2022/02/05 05:53:08;;;;;;;66.88;35.40;;;;;;;-6.23;100.00;94943.66;5047265;28;20482;-78
2022/02/05 05:55:34;;;;;;;60.38;33.40;;;;;;;-6.09;100.00;94946.34;5046043;28;20021;-79
2022/02/05 05:58:00;;;;;;;110.55;65.45;;;;;;;-5.96;100.00;94952.44;5046888;28;20033;-76
2022/02/05 06:00:25;;;;;;;70.28;41.10;;;;;;;-5.87;100.00;94953.69;5028835;28;20025;-77
2022/02/05 06:02:51;;;;;;;72.03;43.63;;;;;;;-5.71;100.00;94947.00;5047208;28;20028;-77
2022/02/05 06:05:16;;;;;;;47.85;27.35;;;;;;;-5.79;100.00;94930.63;5046867;28;20166;-77
2022/02/05 06:07:42;;;;;;;52.80;32.50;;;;;;;-5.50;100.00;94957.75;5030354;28;20037;-77
2022/02/05 06:10:07;;;;;;;38.92;24.50;;;;;;;-5.56;100.00;94956.34;5049735;28;20474;-79
2022/02/05 06:12:33;;;;;;;33.42;17.40;;;;;;;-5.54;100.00;94963.81;5047424;28;20120;-79
2022/02/05 06:15:01;;;;;;;26.50;18.05;;;;;;;-5.43;100.00;94964.13;5052139;28;20048;-79
2022/02/05 06:17:27;;;;;;;44.60;28.55;;;;;;;-5.37;100.00;94959.59;5052111;28;20037;-79
2022/02/05 06:19:52;;;;;;;50.30;29.80;;;;;;;-5.12;100.00;94958.38;5032083;28;20099;-79
2022/02/05 06:22:18;;;;;;;36.92;22.95;;;;;;;-4.72;100.00;94939.47;5046345;28;20039;-79
2022/02/05 06:24:44;;;;;;;28.83;18.15;;;;;;;-3.56;100.00;94944.88;5037172;28;20063;-80
2022/02/05 06:27:09;;;;;;;31.38;14.27;;;;;;;-2.59;99.67;94946.75;5056659;28;20652;-80
2022/02/05 06:29:35;;;;;;;35.50;18.60;;;;;;;-2.79;97.03;94958.06;5059098;28;20457;-78
2022/02/05 06:32:01;;;;;;;22.17;14.65;;;;;;;-3.34;97.96;94955.41;5056202;28;20033;-80
2022/02/05 06:34:26;;;;;;;15.95;10.82;;;;;;;-3.96;100.00;94954.69;5070467;28;20036;-81
2022/02/05 06:36:53;;;;;;;22.63;11.65;;;;;;;-4.12;100.00;94956.41;5049184;28;20024;-80
2022/02/05 06:39:19;;;;;;;21.98;12.90;;;;;;;-4.23;100.00;94963.75;5054651;28;20119;-79
2022/02/05 06:41:46;;;;;;;23.38;12.27;;;;;;;-4.14;100.00;94965.78;5050677;28;20083;-79
2022/02/05 06:44:12;;;;;;;22.88;11.77;;;;;;;-3.20;100.00;94970.59;5056276;28;20081;-80
2022/02/05 06:46:38;;;;;;;20.90;11.98;;;;;;;-2.40;95.92;94965.81;5055226;28;20025;-79
2022/02/05 06:49:04;;;;;;;26.20;12.15;;;;;;;-3.64;97.38;94974.84;5035836;28;20150;-79
2022/02/05 06:51:29;;;;;;;19.75;10.70;;;;;;;-3.38;97.38;94975.03;5054873;28;20063;-79
2022/02/05 06:53:54;;;;;;;19.00;10.52;;;;;;;-2.02;91.90;94972.81;5055475;28;20021;-79
2022/02/05 06:56:20;;;;;;;19.15;10.68;;;;;;;-1.54;88.05;94977.31;5056452;28;20040;-79
2022/02/05 06:58:46;;;;;;;19.52;10.35;;;;;;;-2.19;92.00;94987.34;5064055;28;20084;-77
2022/02/05 07:01:12;;;;;;;60.38;30.95;;;;;;;-0.58;82.16;94977.69;5071422;28;20035;-79
2022/02/05 07:03:37;;;;;;;38.63;22.17;;;;;;;-1.85;94.83;94975.91;5073225;28;20028;-79
2022/02/05 07:06:05;;;;;;;68.25;45.33;;;;;;;-1.39;88.41;94966.19;5071980;28;20032;-79
2022/02/05 07:08:30;;;;;;;23.33;14.48;;;;;;;0.38;85.10;94960.84;5050984;28;20029;-78
2022/02/05 07:10:56;;;;;;;21.95;15.18;;;;;;;0.41;81.66;94956.34;5066309;28;20028;-79
2022/02/05 07:13:22;;;;;;;33.90;18.05;;;;;;;3.43;70.13;94953.19;5070330;28;20044;-79
2022/02/05 07:16:03;;;;;;;22.05;13.77;;;;;;;4.00;60.41;94947.47;5073406;28;20096;-79
2022/02/05 07:21:09;;;;;;;20.55;14.85;;;;;;;3.35;61.76;94935.09;5069612;28;20590;-79
2022/02/05 07:29:13;;;;;;;30.13;18.90;;;;;;;1.43;75.66;94947.06;5067085;28;20098;-78
2022/02/05 07:31:40;;;;;;;28.05;20.48;;;;;;;2.09;71.08;94945.34;5051531;28;20036;-78
2022/02/05 07:34:06;;;;;;;30.85;17.95;;;;;;;2.76;66.82;94942.56;5063418;28;20109;-78
2022/02/05 07:36:32;;;;;;;25.17;16.02;;;;;;;2.61;66.96;94932.63;5047634;28;20505;-77
2022/02/05 07:38:57;;;;;;;26.35;15.32;;;;;;;3.55;65.12;94929.94;5065543;28;20029;-81
2022/02/05 07:41:23;;;;;;;23.25;13.27;;;;;;;2.41;64.53;94935.94;5067042;28;20021;-78
2022/02/05 07:43:48;;;;;;;24.90;14.07;;;;;;;2.56;64.03;94937.31;5064041;28;20051;-78
2022/02/05 07:46:14;;;;;;;23.13;14.73;;;;;;;3.27;60.09;94937.47;5068773;28;20409;-79
2022/02/05 07:48:40;;;;;;;21.58;13.50;;;;;;;5.07;56.61;94921.72;5042101;28;20049;-79
2022/02/05 07:51:06;;;;;;;23.70;14.57;;;;;;;7.47;49.35;94926.16;5055481;28;20036;-81
2022/02/05 07:53:32;;;;;;;21.58;15.73;;;;;;;5.39;49.74;94929.88;5063868;28;20104;-79
2022/02/05 07:55:58;;;;;;;25.77;17.50;;;;;;;4.64;51.96;94937.56;5074820;28;20008;-80
2022/02/05 07:58:24;;;;;;;34.95;23.10;;;;;;;4.88;51.85;94942.28;5093421;28;20060;-83
2022/02/05 08:00:52;;;;;;;36.53;20.77;;;;;;;7.53;47.85;94910.06;5520558;22;20048;-81
2022/02/05 08:08:31;;;;;;;20.10;14.00;;;;;;;7.65;45.30;94941.53;5523213;22;20065;-94
2022/02/05 08:11:02;;;;;;;25.65;17.20;;;;;;;8.12;43.54;94937.56;5004665;28;20415;-92
2022/02/05 08:13:30;;;;;;;28.25;19.02;;;;;;;10.93;39.11;94924.31;5001531;28;20025;-94
2022/02/05 08:16:00;;;;;;;31.25;20.83;;;;;;;11.53;37.55;94913.88;5021152;28;20357;-95
2022/02/05 08:18:25;;;;;;;36.78;22.80;;;;;;;9.89;39.74;94931.63;4992713;28;20799;-94
2022/02/05 08:20:51;;;;;;;40.60;25.45;;;;;;;10.93;38.50;94934.66;4998991;28;20022;-93
2022/02/05 08:23:16;;;;;;;33.05;24.80;;;;;;;12.72;36.10;94944.78;5004412;28;20025;-91
2022/02/05 08:25:42;;;;;;;39.10;25.33;;;;;;;11.21;37.94;94962.63;5008891;28;20032;-92
2022/02/05 08:28:07;;;;;;;32.20;23.25;;;;;;;12.37;36.31;94958.56;5010584;28;20029;-90
2022/02/05 08:30:33;;;;;;;29.15;20.17;;;;;;;11.28;37.51;94974.72;5008716;28;20077;-94
2022/02/05 08:32:59;;;;;;;33.72;22.02;;;;;;;10.66;38.60;94960.28;4990652;28;20044;-91
2022/02/05 08:35:25;;;;;;;27.23;17.35;;;;;;;12.36;36.58;94962.16;5030087;28;20021;-89
2022/02/05 08:37:53;;;;;;;19.52;13.88;;;;;;;13.97;33.41;94956.25;4990907;28;20029;-86
2022/02/05 08:40:18;;;;;;;22.67;14.98;;;;;;;13.96;32.36;94957.28;5005095;28;20033;-86
2022/02/05 08:42:44;;;;;;;19.60;15.07;;;;;;;12.90;34.62;94955.59;5368622;23;20114;-86
2022/02/05 08:45:10;;;;;;;23.02;16.98;;;;;;;13.22;34.32;94962.13;5007821;28;20092;-87
2022/02/05 08:47:36;;;;;;;22.65;19.25;;;;;;;13.59;33.48;94958.41;5022151;28;20037;-85
2022/02/05 08:50:01;;;;;;;30.70;22.10;;;;;;;13.41;34.09;94947.66;5014714;28;20022;-86
2022/02/05 08:52:28;;;;;;;34.83;25.77;;;;;;;14.36;33.72;94940.88;5023353;28;20040;-88
2022/02/05 08:54:54;;;;;;;31.45;25.35;;;;;;;13.57;34.25;94937.00;5002529;28;20052;-89
2022/02/05 08:57:19;;;;;;;32.50;23.40;;;;;;;14.56;33.29;94935.75;5021225;28;20026;-89
2022/02/05 09:02:23;;;;;;;28.23;20.70;;;;;;;12.39;34.74;94935.81;5021539;28;20391;-89
2022/02/05 09:05:06;;;;;;;27.20;19.77;;;;;;;10.57;37.30;94943.97;5022313;28;20029;-88
2022/02/05 09:07:32;;;;;;;26.52;20.73;;;;;;;13.20;33.94;94936.28;5020257;28;20030;-87
2022/02/05 09:15:17;;;;;;;30.20;22.05;;;;;;;16.42;29.88;94931.94;4963652;28;20053;-87
2022/02/05 09:17:43;;;;;;;30.02;22.60;;;;;;;15.49;31.34;94934.94;5014575;28;20033;-87
2022/02/05 09:20:09;;;;;;;28.60;22.92;;;;;;;15.66;30.72;94943.97;4996618;28;20065;-89
2022/02/05 09:22:34;;;;;;;30.00;23.25;;;;;;;15.47;31.16;94942.94;5019632;28;20045;-90
2022/02/05 09:25:00;;;;;;;31.55;23.38;;;;;;;15.89;30.69;94935.72;5018992;28;20067;-90
2022/02/05 09:27:29;;;;;;;31.38;23.50;;;;;;;16.08;30.34;94946.13;5010008;28;20538;-87
2022/02/05 09:32:23;;;;;;;32.85;26.48;;;;;;;13.70;33.66;94956.13;5030774;28;20049;-82
2022/02/05 09:34:48;;;;;;;34.45;25.55;;;;;;;14.11;33.40;94950.16;5049279;28;20048;-84
2022/02/05 09:39:49;;;;;;;32.30;22.80;;;;;;;14.55;32.77;94937.53;5989703;22;20061;-89
2022/02/05 09:44:51;;;;;;;30.85;22.02;;;;;;;14.77;32.16;94951.25;5650229;22;20090;-83
2022/02/05 09:47:16;;;;;;;31.00;22.83;;;;;;;14.95;31.49;94922.00;5056155;28;20031;-85
2022/02/05 09:49:43;;;;;;;31.13;22.83;;;;;;;14.80;32.26;94929.22;5389678;22;20731;-84
2022/02/05 09:54:57;;;;;;;29.55;21.80;;;;;;;15.81;30.88;94940.13;5388134;23;20510;-85
2022/02/05 09:57:22;;;;;;;33.22;24.13;;;;;;;14.89;31.22;94933.25;5017125;28;20033;-92
2022/02/05 10:05:06;;;;;;;30.85;26.30;;;;;;;16.26;30.95;94924.56;5196743;23;20069;-94
2022/02/05 10:10:20;;;;;;;23.92;18.85;;;;;;;14.83;31.39;94895.72;5645463;23;20132;-84
2022/02/05 10:13:08;;;;;;;27.75;19.65;;;;;;;15.98;30.52;94913.59;5298615;23;20075;-94
2022/02/05 10:15:35;;;;;;;22.25;17.30;;;;;;;15.16;31.17;94919.22;4949468;28;20117;-93
2022/02/05 10:43:12;;;;;;;25.08;16.45;;;;;;;8.85;43.49;94899.00;6271956;22;20079;-77
2022/02/05 10:45:48;;;;;;;22.45;15.20;;;;;;;8.53;43.49;94896.41;6274901;22;20011;-78
2022/02/05 10:48:16;;;;;;;27.20;16.17;;;;;;;8.26;44.73;94900.03;6273873;22;20437;-78
2022/02/05 10:50:42;;;;;;;30.95;16.30;;;;;;;7.79;45.59;94894.56;6250575;22;20073;-77
2022/02/05 10:53:23;;;;;;;21.27;15.63;;;;;;;8.10;45.54;94889.66;6248172;22;20007;-78
2022/02/05 10:58:37;;;;;;;24.73;15.63;;;;;;;8.55;44.11;94882.38;6277590;22;20042;-77
2022/02/05 11:07:06;;;;;;;27.02;17.10;;;;;;;7.05;50.03;94890.00;6276606;22;20038;-78
2022/02/05 11:09:31;;;;;;;24.80;18.08;;;;;;;6.71;50.75;94889.09;6274722;22;20023;-77
2022/02/05 11:20:18;;;;;;;35.50;22.45;;;;;;;6.24;55.61;94886.75;6252680;22;20007;-76
2022/02/05 11:22:58;;;;;;;34.75;19.00;;;;;;;6.03;56.85;94882.84;6248370;22;20007;-76
2022/02/05 11:25:23;;;;;;;;;;;;;;;6.10;57.01;94886.44;6276398;22;20003;-76
2022/02/05 11:27:51;;;;;;;30.17;19.33;;;;;;;6.27;56.34;94890.78;6248267;22;20264;-76
2022/02/05 11:30:52;;;;;;;31.45;19.08;;;;;;;7.00;52.98;94879.31;6262103;22;20011;-76
2022/02/05 11:33:31;;;;;;;26.10;15.98;;;;;;;6.41;54.56;94879.19;6251628;22;20003;-78
2022/02/05 11:38:45;;;;;;;25.23;15.68;;;;;;;6.73;55.08;94867.41;6304142;22;20011;-80
2022/02/05 11:41:28;;;;;;;19.85;12.45;;;;;;;7.15;53.30;94870.09;6302485;22;20003;-78
2022/02/05 11:44:16;;;;;;;18.10;10.13;;;;;;;6.95;53.06;94865.28;6301992;22;20003;-78
2022/02/05 11:47:02;;;;;;;18.08;11.32;;;;;;;7.06;52.19;94865.06;6276331;22;20068;-78
2022/02/05 11:49:53;;;;;;;17.00;10.27;;;;;;;7.82;48.74;94855.59;6329395;22;20458;-78
2022/02/05 11:52:37;;;;;;;18.05;10.40;;;;;;;8.14;49.90;94857.44;6302031;22;20850;-78
2022/02/05 11:55:08;;;;;;;15.18;11.10;;;;;;;8.46;48.67;94860.13;6330596;22;20344;-76
2022/02/05 11:57:46;;;;;;;17.00;11.88;;;;;;;8.40;49.20;94858.16;6301979;22;19999;-76
2022/02/05 12:00:21;;;;;;;12.93;10.15;;;;;;;8.20;49.43;94852.47;6302868;22;19999;-76
2022/02/05 12:02:59;;;;;;;16.35;10.23;;;;;;;8.54;47.86;94846.41;6275343;22;20552;-75
2022/02/05 12:05:31;;;;;;;17.17;10.48;;;;;;;8.57;47.79;94843.50;6304180;22;20089;-76
2022/02/05 12:08:05;;;;;;;11.95;9.07;;;;;;;8.35;47.18;94838.00;6303039;22;20281;-76
2022/02/05 12:10:41;;;;;;;13.05;9.30;;;;;;;8.73;47.22;94828.81;6329111;22;20521;-77
2022/02/05 12:13:21;;;;;;;15.07;9.68;;;;;;;8.63;46.57;94835.94;6301874;22;19999;-77
2022/02/05 12:15:57;;;;;;;14.13;8.50;;;;;;;8.54;47.75;94839.44;6329262;22;19999;-76
2022/02/05 12:18:31;;;;;;;19.58;8.38;;;;;;;8.51;48.25;94849.31;6330369;22;20067;-76
2022/02/05 12:23:53;;;;;;;15.43;9.05;;;;;;;8.54;48.61;94842.03;6328340;22;20046;-76
2022/02/05 12:26:20;;;;;;;17.50;9.57;;;;;;;8.48;49.77;94848.66;6275965;22;20400;-76
2022/02/05 12:28:47;;;;;;;21.38;10.70;;;;;;;7.75;51.99;94852.84;6265321;22;20007;-77
2022/02/05 12:31:21;;;;;;;16.80;10.45;;;;;;;7.01;53.76;94847.47;6266142;22;20392;-78
2022/02/05 12:33:56;;;;;;;14.55;10.35;;;;;;;7.33;52.74;94844.28;6265466;22;20099;-78
2022/02/05 12:36:41;;;;;;;16.98;10.68;;;;;;;6.82;54.29;94845.91;6267051;22;20019;-78
2022/02/05 12:39:09;;;;;;;15.25;11.18;;;;;;;6.23;59.22;94846.56;6268098;22;20031;-78
2022/02/05 12:41:35;;;;;;;16.42;11.57;;;;;;;5.94;60.72;94852.88;6264134;22;20012;-78
2022/02/05 12:44:04;;;;;;;21.65;11.98;;;;;;;6.19;57.67;94854.72;6268336;22;20037;-79
2022/02/05 12:46:36;;;;;;;21.27;11.65;;;;;;;6.27;56.40;94858.16;6268064;22;20050;-78
2022/02/05 12:49:06;;;;;;;21.60;12.60;;;;;;;6.20;56.54;94864.84;6266270;22;20004;-78
2022/02/05 12:51:32;;;;;;;22.88;13.02;;;;;;;6.10;56.81;94863.31;6242569;22;20003;-78
2022/02/05 12:54:14;;;;;;;25.73;15.02;;;;;;;5.90;56.08;94859.25;6268774;22;20011;-78
2022/02/05 12:56:41;;;;;;;23.30;13.77;;;;;;;6.06;54.07;94849.94;6266852;22;20057;-78
2022/02/05 12:59:15;;;;;;;17.27;11.93;;;;;;;5.89;55.59;94849.91;6266491;22;20034;-78
2022/02/05 13:02:14;;;;;;;25.85;13.30;;;;;;;5.59;55.54;94856.13;6267186;22;20003;-78
2022/02/05 13:04:50;;;;;;;21.65;12.15;;;;;;;5.99;55.44;94842.94;6233986;22;20008;-78
2022/02/05 13:07:18;;;;;;;23.58;13.15;;;;;;;6.32;54.15;94850.03;6267285;22;20452;-78
2022/02/05 13:09:57;;;;;;;23.67;13.40;;;;;;;6.45;54.87;94850.47;6266732;22;20011;-78
2022/02/05 13:12:35;;;;;;;23.85;13.52;;;;;;;6.45;56.40;94835.03;6266575;22;20257;-78
2022/02/05 13:15:20;;;;;;;29.40;17.67;;;;;;;6.59;54.83;94828.53;6292478;22;20009;-78
2022/02/05 13:26:16;;;;;;;25.27;16.92;;;;;;;6.93;55.32;94824.28;6231703;22;20085;-77
2022/02/05 13:34:17;;;;;;;33.28;19.15;;;;;;;7.12;53.97;94818.09;6252395;22;20014;-77
2022/02/05 13:39:37;;;;;;;30.00;17.85;;;;;;;7.07;54.39;94825.47;6235357;23;20038;-76
2022/02/05 13:42:14;;;;;;;28.92;18.50;;;;;;;7.17;54.16;94810.72;6237545;22;20004;-76
2022/02/05 13:45:35;;;;;;;28.90;17.90;;;;;;;7.22;54.08;94814.47;6236229;23;20426;-76
2022/02/05 13:47:50;;;;;;;37.67;22.75;;;;;;;7.39;53.56;94810.16;6228854;23;20000;-75
2022/02/05 13:50:24;;;;;;;32.83;21.95;;;;;;;7.28;53.79;94810.47;6261653;22;20004;-76
2022/02/05 13:52:51;;;;;;;30.63;19.25;;;;;;;7.18;53.10;94814.91;6261143;22;20438;-77
2022/02/05 13:55:23;;;;;;;30.92;18.17;;;;;;;7.02;55.16;94817.41;6235067;23;20429;-77
2022/02/05 13:57:58;;;;;;;26.65;18.55;;;;;;;6.11;59.14;94836.63;6237727;22;20023;-78
2022/02/05 14:00:38;;;;;;;30.13;18.10;;;;;;;5.76;62.38;94852.78;6237126;22;20095;-78
2022/02/05 14:03:05;;;;;;;30.83;17.77;;;;;;;5.91;61.63;94851.38;6236607;22;20055;-78
2022/02/05 14:05:31;;;;;;;30.98;18.20;;;;;;;6.20;60.93;94851.19;6260777;22;20704;-79
2022/02/05 14:07:56;;;;;;;27.00;17.63;;;;;;;6.30;59.25;94839.06;6236149;23;20103;-78
2022/02/05 14:10:23;;;;;;;28.90;18.67;;;;;;;5.87;62.20;94838.97;6236123;23;20057;-79
2022/02/05 14:12:56;;;;;;;35.00;21.83;;;;;;;6.27;61.34;94841.94;6234977;23;20012;-78
2022/02/05 14:15:23;;;;;;;56.25;39.22;;;;;;;6.17;62.09;94824.00;6261000;22;20004;-78
2022/02/05 14:18:14;;;;;;;67.00;43.97;;;;;;;6.55;61.64;94852.94;6235438;23;20004;-78
2022/02/05 14:20:52;;;;;;;62.30;42.35;;;;;;;6.51;61.36;94842.16;6261255;22;20034;-78
2022/02/05 14:23:19;;;;;;;45.17;30.80;;;;;;;6.51;61.67;94856.78;6237617;22;20512;-78
2022/02/05 14:26:04;;;;;;;45.88;30.58;;;;;;;6.41;62.33;94854.28;6260739;22;20058;-76
2022/02/05 14:28:46;;;;;;;53.45;34.42;;;;;;;6.45;62.46;94859.94;6236172;22;20013;-75
2022/02/05 14:31:30;;;;;;;37.53;24.15;;;;;;;6.42;62.78;94844.81;6235772;23;20004;-75
2022/02/05 14:41:49;;;;;;;34.05;22.45;;;;;;;6.27;66.19;94841.94;6257757;22;20077;-75
2022/02/05 14:44:15;;;;;;;40.63;23.33;;;;;;;6.24;67.07;94843.03;6228080;23;20086;-76
2022/02/05 14:46:41;;;;;;;35.17;22.48;;;;;;;6.24;66.15;94849.94;6260849;22;20087;-75
2022/02/05 14:49:08;;;;;;;35.75;22.23;;;;;;;6.19;66.40;94852.16;6234602;23;20087;-76
2022/02/05 14:51:33;;;;;;;40.55;27.05;;;;;;;6.09;67.06;94843.69;6235231;23;20015;-76
2022/02/05 14:53:59;;;;;;;44.10;27.95;;;;;;;5.99;68.21;94842.94;6235511;23;20012;-76
2022/02/05 14:56:27;;;;;;;41.08;28.85;;;;;;;5.96;68.83;94851.75;6234719;22;20038;-76
2022/02/05 14:58:53;;;;;;;46.55;30.30;;;;;;;5.94;68.78;94858.78;6260500;22;20067;-76
2022/02/05 15:01:21;;;;;;;43.40;29.13;;;;;;;5.93;69.07;94851.25;6234788;23;20304;-75
2022/02/05 15:03:51;;;;;;;49.95;29.73;;;;;;;5.92;69.47;94849.63;6234631;22;20036;-76
2022/02/05 15:06:21;;;;;;;48.85;33.05;;;;;;;5.85;69.96;94851.94;6257098;22;20031;-75
2022/02/05 15:08:48;;;;;;;65.45;40.17;;;;;;;5.82;70.63;94857.34;6256243;22;20042;-76
2022/02/05 15:11:17;;;;;;;68.63;43.55;;;;;;;5.84;70.41;94847.75;6258801;22;20001;-75
2022/02/05 15:13:45;;;;;;;75.10;49.67;;;;;;;5.78;70.64;94851.69;6233658;23;20004;-76
2022/02/05 15:16:12;;;;;;;71.70;48.25;;;;;;;5.59;72.10;94864.63;6259135;22;20079;-76
2022/02/05 15:18:47;;;;;;;63.10;39.05;;;;;;;5.50;73.94;94868.06;6232154;22;20015;-76
2022/02/05 15:21:13;;;;;;;48.83;30.85;;;;;;;5.45;74.80;94875.41;6258699;22;20000;-76
2022/02/05 15:23:38;;;;;;;42.25;26.58;;;;;;;5.47;74.22;94878.63;6232542;23;20042;-76
2022/02/05 15:26:06;;;;;;;38.13;25.13;;;;;;;5.41;73.97;94874.06;6233651;23;20124;-76
2022/02/05 15:28:31;;;;;;;43.30;26.73;;;;;;;5.41;74.81;94879.19;6259588;22;20023;-76